sensor_id;sensor_type;location;lat;lon;timestamp;P1;durP1;ratioP1;P2;durP2;ratioP2
20865;SDS011;10593;48.398;10.698;2023-10-09T00:02:10;4.10;;;3.23;;
20865;SDS011;10593;48.398;10.698;2023-10-09T00:04:39;8.20;;;4.70;;
20865;SDS011;10593;48.398;10.698;2023-10-09T00:07:07;6.53;;;4.43;;
20865;SDS011;10593;48.398;10.698;2023-10-09T00:09:34;7.07;;;3.83;;
20865;SDS011;10593;48.398;10.698;2023-10-09T00:12:14;6.17;;;3.57;;
20865;SDS011;10593;48.398;10.698;2023-10-09T00:14:53;5.97;;;4.10;;
20865;SDS011;10593;48.398;10.698;2023-10-09T00:17:32;5.40;;;3.53;;
20865;SDS011;10593;48.398;10.698;2023-10-09T00:19:57;4.23;;;3.23;;
20865;SDS011;10593;48.398;10.698;2023-10-09T00:22:24;6.10;;;3.40;;
20865;SDS011;10593;48.398;10.698;2023-10-09T00:24:56;4.40;;;3.13;;
20865;SDS011;10593;48.398;10.698;2023-10-09T00:27:46;6.03;;;3.30;;
20865;SDS011;10593;48.398;10.698;2023-10-09T00:30:13;3.53;;;2.80;;
20865;SDS011;10593;48.398;10.698;2023-10-09T00:32:43;5.13;;;3.20;;
20865;SDS011;10593;48.398;10.698;2023-10-09T00:35:36;5.67;;;2.90;;
20865;SDS011;10593;48.398;10.698;2023-10-09T00:38:09;7.20;;;3.50;;
20865;SDS011;10593;48.398;10.698;2023-10-09T00:40:49;5.33;;;3.50;;
20865;SDS011;10593;48.398;10.698;2023-10-09T00:43:34;5.67;;;3.37;;
20865;SDS011;10593;48.398;10.698;2023-10-09T00:46:02;4.43;;;3.43;;
20865;SDS011;10593;48.398;10.698;2023-10-09T00:48:55;5.40;;;3.20;;
20865;SDS011;10593;48.398;10.698;2023-10-09T00:51:26;5.67;;;3.30;;
20865;SDS011;10593;48.398;10.698;2023-10-09T00:53:59;6.30;;;3.20;;
20865;SDS011;10593;48.398;10.698;2023-10-09T00:56:40;6.63;;;3.43;;
20865;SDS011;10593;48.398;10.698;2023-10-09T00:59:16;6.37;;;3.40;;
20865;SDS011;10593;48.398;10.698;2023-10-09T01:01:45;5.63;;;3.43;;
20865;SDS011;10593;48.398;10.698;2023-10-09T01:04:29;5.30;;;2.83;;
20865;SDS011;10593;48.398;10.698;2023-10-09T01:07:01;3.23;;;2.83;;
20865;SDS011;10593;48.398;10.698;2023-10-09T01:09:35;5.07;;;3.33;;
20865;SDS011;10593;48.398;10.698;2023-10-09T01:12:08;5.67;;;3.30;;
20865;SDS011;10593;48.398;10.698;2023-10-09T01:14:43;6.23;;;3.57;;
20865;SDS011;10593;48.398;10.698;2023-10-09T01:17:09;7.13;;;4.00;;
20865;SDS011;10593;48.398;10.698;2023-10-09T01:19:36;9.93;;;4.27;;
20865;SDS011;10593;48.398;10.698;2023-10-09T01:22:03;9.83;;;4.57;;
20865;SDS011;10593;48.398;10.698;2023-10-09T01:24:38;5.67;;;3.80;;
20865;SDS011;10593;48.398;10.698;2023-10-09T01:27:05;7.30;;;3.87;;
20865;SDS011;10593;48.398;10.698;2023-10-09T01:29:40;6.70;;;3.80;;
20865;SDS011;10593;48.398;10.698;2023-10-09T01:32:07;7.20;;;4.00;;
20865;SDS011;10593;48.398;10.698;2023-10-09T01:34:41;7.03;;;3.60;;
20865;SDS011;10593;48.398;10.698;2023-10-09T01:37:09;7.13;;;3.57;;
20865;SDS011;10593;48.398;10.698;2023-10-09T01:39:51;5.97;;;4.07;;
20865;SDS011;10593;48.398;10.698;2023-10-09T01:42:18;6.23;;;3.77;;
20865;SDS011;10593;48.398;10.698;2023-10-09T01:45:08;6.33;;;3.90;;
20865;SDS011;10593;48.398;10.698;2023-10-09T01:47:52;6.30;;;3.93;;
20865;SDS011;10593;48.398;10.698;2023-10-09T01:50:22;7.00;;;3.90;;
20865;SDS011;10593;48.398;10.698;2023-10-09T01:52:52;5.73;;;3.87;;
20865;SDS011;10593;48.398;10.698;2023-10-09T01:55:18;6.30;;;3.60;;
20865;SDS011;10593;48.398;10.698;2023-10-09T01:58:08;9.47;;;3.97;;
20865;SDS011;10593;48.398;10.698;2023-10-09T02:00:42;4.80;;;3.37;;
20865;SDS011;10593;48.398;10.698;2023-10-09T02:03:13;8.60;;;4.10;;
20865;SDS011;10593;48.398;10.698;2023-10-09T02:05:41;6.53;;;4.13;;
20865;SDS011;10593;48.398;10.698;2023-10-09T02:08:07;5.93;;;3.70;;
20865;SDS011;10593;48.398;10.698;2023-10-09T02:10:38;4.80;;;4.13;;
20865;SDS011;10593;48.398;10.698;2023-10-09T02:13:05;6.53;;;3.63;;
20865;SDS011;10593;48.398;10.698;2023-10-09T02:15:33;8.23;;;4.60;;
20865;SDS011;10593;48.398;10.698;2023-10-09T02:18:17;9.53;;;3.83;;
20865;SDS011;10593;48.398;10.698;2023-10-09T02:20:48;6.87;;;3.70;;
20865;SDS011;10593;48.398;10.698;2023-10-09T02:23:29;7.47;;;4.30;;
20865;SDS011;10593;48.398;10.698;2023-10-09T02:26:09;6.77;;;4.33;;
20865;SDS011;10593;48.398;10.698;2023-10-09T02:29:03;9.10;;;3.70;;
20865;SDS011;10593;48.398;10.698;2023-10-09T02:31:38;6.70;;;4.13;;
20865;SDS011;10593;48.398;10.698;2023-10-09T02:34:09;8.13;;;4.40;;
20865;SDS011;10593;48.398;10.698;2023-10-09T02:36:36;6.37;;;4.53;;
20865;SDS011;10593;48.398;10.698;2023-10-09T02:39:09;7.33;;;3.90;;
20865;SDS011;10593;48.398;10.698;2023-10-09T02:41:48;7.57;;;3.53;;
20865;SDS011;10593;48.398;10.698;2023-10-09T02:44:15;6.83;;;4.00;;
20865;SDS011;10593;48.398;10.698;2023-10-09T02:46:42;6.73;;;4.00;;
20865;SDS011;10593;48.398;10.698;2023-10-09T02:49:09;9.03;;;3.67;;
20865;SDS011;10593;48.398;10.698;2023-10-09T02:51:40;5.60;;;3.57;;
20865;SDS011;10593;48.398;10.698;2023-10-09T02:54:12;6.00;;;3.70;;
20865;SDS011;10593;48.398;10.698;2023-10-09T02:56:47;5.87;;;4.03;;
20865;SDS011;10593;48.398;10.698;2023-10-09T02:59:32;6.83;;;3.50;;
20865;SDS011;10593;48.398;10.698;2023-10-09T03:02:09;7.67;;;4.23;;
20865;SDS011;10593;48.398;10.698;2023-10-09T03:04:36;6.87;;;3.90;;
20865;SDS011;10593;48.398;10.698;2023-10-09T03:07:04;10.10;;;3.90;;
20865;SDS011;10593;48.398;10.698;2023-10-09T03:09:30;8.87;;;3.83;;
20865;SDS011;10593;48.398;10.698;2023-10-09T03:12:01;5.80;;;3.63;;
20865;SDS011;10593;48.398;10.698;2023-10-09T03:14:30;8.20;;;3.83;;
20865;SDS011;10593;48.398;10.698;2023-10-09T03:17:06;8.23;;;4.10;;
20865;SDS011;10593;48.398;10.698;2023-10-09T03:19:36;6.43;;;3.50;;
20865;SDS011;10593;48.398;10.698;2023-10-09T03:22:06;9.30;;;4.50;;
20865;SDS011;10593;48.398;10.698;2023-10-09T03:24:35;6.90;;;3.40;;
20865;SDS011;10593;48.398;10.698;2023-10-09T03:27:03;7.27;;;4.03;;
20865;SDS011;10593;48.398;10.698;2023-10-09T03:29:29;4.07;;;3.50;;
20865;SDS011;10593;48.398;10.698;2023-10-09T03:31:55;6.73;;;3.90;;
20865;SDS011;10593;48.398;10.698;2023-10-09T03:34:21;6.90;;;3.87;;
20865;SDS011;10593;48.398;10.698;2023-10-09T03:36:49;6.77;;;4.53;;
20865;SDS011;10593;48.398;10.698;2023-10-09T03:39:24;6.07;;;3.50;;
20865;SDS011;10593;48.398;10.698;2023-10-09T03:42:12;8.33;;;4.00;;
20865;SDS011;10593;48.398;10.698;2023-10-09T03:44:44;6.97;;;3.67;;
20865;SDS011;10593;48.398;10.698;2023-10-09T03:47:17;7.63;;;4.03;;
20865;SDS011;10593;48.398;10.698;2023-10-09T03:49:47;6.00;;;3.20;;
20865;SDS011;10593;48.398;10.698;2023-10-09T03:52:18;9.60;;;4.27;;
20865;SDS011;10593;48.398;10.698;2023-10-09T03:54:44;6.87;;;3.40;;
20865;SDS011;10593;48.398;10.698;2023-10-09T03:57:14;8.97;;;4.07;;
20865;SDS011;10593;48.398;10.698;2023-10-09T03:59:47;6.47;;;3.87;;
20865;SDS011;10593;48.398;10.698;2023-10-09T04:02:13;6.07;;;3.43;;
20865;SDS011;10593;48.398;10.698;2023-10-09T04:04:41;9.53;;;4.67;;
20865;SDS011;10593;48.398;10.698;2023-10-09T04:07:12;9.77;;;4.10;;
20865;SDS011;10593;48.398;10.698;2023-10-09T04:09:41;8.23;;;3.50;;
20865;SDS011;10593;48.398;10.698;2023-10-09T04:12:09;8.20;;;4.10;;
20865;SDS011;10593;48.398;10.698;2023-10-09T04:14:39;6.50;;;4.17;;
20865;SDS011;10593;48.398;10.698;2023-10-09T04:17:19;10.77;;;4.10;;
20865;SDS011;10593;48.398;10.698;2023-10-09T04:19:54;7.07;;;3.97;;
20865;SDS011;10593;48.398;10.698;2023-10-09T04:22:39;7.57;;;3.47;;
20865;SDS011;10593;48.398;10.698;2023-10-09T04:25:21;7.13;;;3.47;;
20865;SDS011;10593;48.398;10.698;2023-10-09T04:27:54;7.60;;;3.30;;
20865;SDS011;10593;48.398;10.698;2023-10-09T04:30:37;9.70;;;3.80;;
20865;SDS011;10593;48.398;10.698;2023-10-09T04:33:24;8.13;;;3.77;;
20865;SDS011;10593;48.398;10.698;2023-10-09T04:36:04;6.67;;;3.97;;
20865;SDS011;10593;48.398;10.698;2023-10-09T04:38:44;7.10;;;3.17;;
20865;SDS011;10593;48.398;10.698;2023-10-09T04:41:32;6.97;;;3.53;;
20865;SDS011;10593;48.398;10.698;2023-10-09T04:44:19;6.00;;;3.37;;
20865;SDS011;10593;48.398;10.698;2023-10-09T04:46:48;8.80;;;4.47;;
20865;SDS011;10593;48.398;10.698;2023-10-09T04:49:34;9.50;;;4.00;;
20865;SDS011;10593;48.398;10.698;2023-10-09T04:52:21;8.63;;;3.80;;
20865;SDS011;10593;48.398;10.698;2023-10-09T04:54:56;6.30;;;3.30;;
20865;SDS011;10593;48.398;10.698;2023-10-09T04:57:41;8.10;;;3.50;;
20865;SDS011;10593;48.398;10.698;2023-10-09T05:00:12;6.43;;;3.30;;
20865;SDS011;10593;48.398;10.698;2023-10-09T05:02:51;8.23;;;3.60;;
20865;SDS011;10593;48.398;10.698;2023-10-09T05:05:24;7.83;;;3.40;;
20865;SDS011;10593;48.398;10.698;2023-10-09T05:08:09;7.27;;;3.50;;
20865;SDS011;10593;48.398;10.698;2023-10-09T05:10:52;9.43;;;3.97;;
20865;SDS011;10593;48.398;10.698;2023-10-09T05:13:23;7.47;;;4.17;;
20865;SDS011;10593;48.398;10.698;2023-10-09T05:18:50;7.13;;;4.10;;
20865;SDS011;10593;48.398;10.698;2023-10-09T05:21:34;6.33;;;3.80;;
20865;SDS011;10593;48.398;10.698;2023-10-09T05:24:08;7.43;;;3.50;;
20865;SDS011;10593;48.398;10.698;2023-10-09T05:26:38;6.97;;;3.27;;
20865;SDS011;10593;48.398;10.698;2023-10-09T05:29:14;5.70;;;3.30;;
20865;SDS011;10593;48.398;10.698;2023-10-09T05:34:30;8.73;;;3.77;;
20865;SDS011;10593;48.398;10.698;2023-10-09T05:37:05;9.87;;;4.03;;
20865;SDS011;10593;48.398;10.698;2023-10-09T05:40:04;6.73;;;3.47;;
20865;SDS011;10593;48.398;10.698;2023-10-09T05:42:43;7.60;;;3.73;;
20865;SDS011;10593;48.398;10.698;2023-10-09T05:45:12;6.77;;;3.60;;
20865;SDS011;10593;48.398;10.698;2023-10-09T05:47:46;5.80;;;3.90;;
20865;SDS011;10593;48.398;10.698;2023-10-09T05:50:19;7.00;;;3.23;;
20865;SDS011;10593;48.398;10.698;2023-10-09T05:52:49;6.87;;;3.93;;
20865;SDS011;10593;48.398;10.698;2023-10-09T05:55:19;9.00;;;3.93;;
20865;SDS011;10593;48.398;10.698;2023-10-09T05:58:12;8.27;;;3.50;;
20865;SDS011;10593;48.398;10.698;2023-10-09T06:01:10;7.73;;;3.23;;
20865;SDS011;10593;48.398;10.698;2023-10-09T06:03:54;7.33;;;3.43;;
20865;SDS011;10593;48.398;10.698;2023-10-09T06:06:20;8.40;;;3.83;;
20865;SDS011;10593;48.398;10.698;2023-10-09T06:09:02;4.60;;;2.93;;
20865;SDS011;10593;48.398;10.698;2023-10-09T06:11:53;7.63;;;3.57;;
20865;SDS011;10593;48.398;10.698;2023-10-09T06:14:19;4.67;;;3.17;;
20865;SDS011;10593;48.398;10.698;2023-10-09T06:17:10;5.57;;;3.33;;
20865;SDS011;10593;48.398;10.698;2023-10-09T06:19:36;7.33;;;3.00;;
20865;SDS011;10593;48.398;10.698;2023-10-09T06:22:08;9.47;;;4.23;;
20865;SDS011;10593;48.398;10.698;2023-10-09T06:24:55;8.73;;;4.07;;
20865;SDS011;10593;48.398;10.698;2023-10-09T06:27:22;5.70;;;2.83;;
20865;SDS011;10593;48.398;10.698;2023-10-09T06:29:57;9.10;;;3.70;;
20865;SDS011;10593;48.398;10.698;2023-10-09T06:32:42;6.57;;;3.53;;
20865;SDS011;10593;48.398;10.698;2023-10-09T06:35:16;6.17;;;3.73;;
20865;SDS011;10593;48.398;10.698;2023-10-09T06:37:55;6.30;;;3.97;;
20865;SDS011;10593;48.398;10.698;2023-10-09T06:40:26;7.43;;;3.50;;
20865;SDS011;10593;48.398;10.698;2023-10-09T06:43:02;7.40;;;3.20;;
20865;SDS011;10593;48.398;10.698;2023-10-09T06:45:46;9.07;;;3.63;;
20865;SDS011;10593;48.398;10.698;2023-10-09T06:48:23;7.93;;;3.50;;
20865;SDS011;10593;48.398;10.698;2023-10-09T06:50:55;8.23;;;3.87;;
20865;SDS011;10593;48.398;10.698;2023-10-09T06:53:32;7.40;;;3.07;;
20865;SDS011;10593;48.398;10.698;2023-10-09T06:56:17;6.67;;;3.73;;
20865;SDS011;10593;48.398;10.698;2023-10-09T07:01:23;6.67;;;3.57;;
20865;SDS011;10593;48.398;10.698;2023-10-09T07:03:53;5.83;;;3.33;;
20865;SDS011;10593;48.398;10.698;2023-10-09T07:06:35;8.33;;;3.20;;
20865;SDS011;10593;48.398;10.698;2023-10-09T07:09:01;7.70;;;3.23;;
20865;SDS011;10593;48.398;10.698;2023-10-09T07:11:33;6.47;;;3.17;;
20865;SDS011;10593;48.398;10.698;2023-10-09T07:14:05;6.13;;;3.00;;
20865;SDS011;10593;48.398;10.698;2023-10-09T07:16:32;6.30;;;3.47;;
20865;SDS011;10593;48.398;10.698;2023-10-09T07:19:04;5.33;;;2.70;;
20865;SDS011;10593;48.398;10.698;2023-10-09T07:21:51;6.83;;;3.13;;
20865;SDS011;10593;48.398;10.698;2023-10-09T07:24:19;7.33;;;3.00;;
20865;SDS011;10593;48.398;10.698;2023-10-09T07:26:59;5.83;;;2.90;;
20865;SDS011;10593;48.398;10.698;2023-10-09T07:29:31;7.43;;;3.30;;
20865;SDS011;10593;48.398;10.698;2023-10-09T07:32:12;10.20;;;3.90;;
20865;SDS011;10593;48.398;10.698;2023-10-09T07:34:45;6.47;;;2.77;;
20865;SDS011;10593;48.398;10.698;2023-10-09T07:37:25;6.50;;;2.77;;
20865;SDS011;10593;48.398;10.698;2023-10-09T07:40:04;8.60;;;3.00;;
20865;SDS011;10593;48.398;10.698;2023-10-09T07:42:32;7.87;;;2.87;;
20865;SDS011;10593;48.398;10.698;2023-10-09T07:45:02;4.40;;;3.00;;
20865;SDS011;10593;48.398;10.698;2023-10-09T07:47:48;5.40;;;2.40;;
20865;SDS011;10593;48.398;10.698;2023-10-09T07:50:39;4.07;;;2.73;;
20865;SDS011;10593;48.398;10.698;2023-10-09T07:53:14;6.53;;;2.80;;
20865;SDS011;10593;48.398;10.698;2023-10-09T07:55:43;9.97;;;3.27;;
20865;SDS011;10593;48.398;10.698;2023-10-09T07:58:40;6.93;;;2.83;;
20865;SDS011;10593;48.398;10.698;2023-10-09T08:01:12;6.60;;;3.03;;
20865;SDS011;10593;48.398;10.698;2023-10-09T08:04:00;6.93;;;2.73;;
20865;SDS011;10593;48.398;10.698;2023-10-09T08:06:39;5.03;;;2.47;;
20865;SDS011;10593;48.398;10.698;2023-10-09T08:09:07;8.30;;;2.97;;
20865;SDS011;10593;48.398;10.698;2023-10-09T08:11:37;6.00;;;2.50;;
20865;SDS011;10593;48.398;10.698;2023-10-09T08:14:12;8.63;;;3.37;;
20865;SDS011;10593;48.398;10.698;2023-10-09T08:16:45;8.83;;;2.90;;
20865;SDS011;10593;48.398;10.698;2023-10-09T08:19:12;6.90;;;2.70;;
20865;SDS011;10593;48.398;10.698;2023-10-09T08:21:57;6.00;;;3.13;;
20865;SDS011;10593;48.398;10.698;2023-10-09T08:24:47;3.97;;;2.43;;
20865;SDS011;10593;48.398;10.698;2023-10-09T08:27:22;7.70;;;3.23;;
20865;SDS011;10593;48.398;10.698;2023-10-09T08:30:13;10.00;;;3.63;;
20865;SDS011;10593;48.398;10.698;2023-10-09T08:32:45;7.50;;;3.30;;
20865;SDS011;10593;48.398;10.698;2023-10-09T08:35:50;6.23;;;2.80;;
20865;SDS011;10593;48.398;10.698;2023-10-09T08:38:20;5.67;;;3.10;;
20865;SDS011;10593;48.398;10.698;2023-10-09T08:40:49;4.70;;;2.57;;
20865;SDS011;10593;48.398;10.698;2023-10-09T08:43:23;7.00;;;3.23;;
20865;SDS011;10593;48.398;10.698;2023-10-09T08:45:50;5.17;;;2.67;;
20865;SDS011;10593;48.398;10.698;2023-10-09T08:48:26;3.77;;;2.40;;
20865;SDS011;10593;48.398;10.698;2023-10-09T08:50:53;4.00;;;2.47;;
20865;SDS011;10593;48.398;10.698;2023-10-09T08:53:20;7.43;;;3.20;;
20865;SDS011;10593;48.398;10.698;2023-10-09T08:55:49;7.87;;;3.40;;
20865;SDS011;10593;48.398;10.698;2023-10-09T08:58:16;4.60;;;2.80;;
20865;SDS011;10593;48.398;10.698;2023-10-09T09:00:49;7.47;;;2.73;;
20865;SDS011;10593;48.398;10.698;2023-10-09T09:03:17;8.10;;;2.90;;
20865;SDS011;10593;48.398;10.698;2023-10-09T09:05:48;5.60;;;2.30;;
20865;SDS011;10593;48.398;10.698;2023-10-09T09:08:29;6.43;;;2.57;;
20865;SDS011;10593;48.398;10.698;2023-10-09T09:11:02;7.93;;;2.80;;
20865;SDS011;10593;48.398;10.698;2023-10-09T09:16:30;9.00;;;2.80;;
20865;SDS011;10593;48.398;10.698;2023-10-09T09:19:04;5.70;;;2.60;;
20865;SDS011;10593;48.398;10.698;2023-10-09T09:21:34;6.37;;;3.00;;
20865;SDS011;10593;48.398;10.698;2023-10-09T09:24:09;8.63;;;3.37;;
20865;SDS011;10593;48.398;10.698;2023-10-09T09:26:56;5.43;;;3.27;;
20865;SDS011;10593;48.398;10.698;2023-10-09T09:32:07;6.43;;;2.80;;
20865;SDS011;10593;48.398;10.698;2023-10-09T09:37:20;3.87;;;2.67;;
20865;SDS011;10593;48.398;10.698;2023-10-09T09:40:00;6.80;;;2.57;;
20865;SDS011;10593;48.398;10.698;2023-10-09T09:42:39;6.43;;;2.90;;
20865;SDS011;10593;48.398;10.698;2023-10-09T09:45:13;6.63;;;3.00;;
20865;SDS011;10593;48.398;10.698;2023-10-09T09:47:42;6.83;;;2.37;;
20865;SDS011;10593;48.398;10.698;2023-10-09T09:50:16;7.03;;;3.20;;
20865;SDS011;10593;48.398;10.698;2023-10-09T09:52:54;11.47;;;3.17;;
20865;SDS011;10593;48.398;10.698;2023-10-09T09:55:23;8.93;;;2.90;;
20865;SDS011;10593;48.398;10.698;2023-10-09T09:57:57;7.77;;;3.07;;
20865;SDS011;10593;48.398;10.698;2023-10-09T10:00:25;7.53;;;2.90;;
20865;SDS011;10593;48.398;10.698;2023-10-09T10:03:11;7.00;;;3.30;;
20865;SDS011;10593;48.398;10.698;2023-10-09T10:05:43;8.93;;;3.17;;
20865;SDS011;10593;48.398;10.698;2023-10-09T10:08:16;6.77;;;2.80;;
20865;SDS011;10593;48.398;10.698;2023-10-09T10:10:46;5.83;;;2.93;;
20865;SDS011;10593;48.398;10.698;2023-10-09T10:13:15;4.53;;;2.70;;
20865;SDS011;10593;48.398;10.698;2023-10-09T10:16:04;4.93;;;2.27;;
20865;SDS011;10593;48.398;10.698;2023-10-09T10:18:57;8.10;;;3.30;;
20865;SDS011;10593;48.398;10.698;2023-10-09T10:21:28;9.33;;;3.30;;
20865;SDS011;10593;48.398;10.698;2023-10-09T10:24:00;11.93;;;3.07;;
20865;SDS011;10593;48.398;10.698;2023-10-09T10:26:35;5.07;;;2.60;;
20865;SDS011;10593;48.398;10.698;2023-10-09T10:29:17;6.33;;;2.33;;
20865;SDS011;10593;48.398;10.698;2023-10-09T10:31:54;5.90;;;2.80;;
20865;SDS011;10593;48.398;10.698;2023-10-09T10:34:25;9.03;;;3.30;;
20865;SDS011;10593;48.398;10.698;2023-10-09T10:37:12;8.27;;;2.60;;
20865;SDS011;10593;48.398;10.698;2023-10-09T10:39:50;8.70;;;3.33;;
20865;SDS011;10593;48.398;10.698;2023-10-09T10:42:24;6.17;;;2.60;;
20865;SDS011;10593;48.398;10.698;2023-10-09T10:45:00;5.20;;;2.47;;
20865;SDS011;10593;48.398;10.698;2023-10-09T10:47:27;6.37;;;2.60;;
20865;SDS011;10593;48.398;10.698;2023-10-09T10:50:00;9.53;;;2.60;;
20865;SDS011;10593;48.398;10.698;2023-10-09T10:53:11;6.13;;;2.80;;
20865;SDS011;10593;48.398;10.698;2023-10-09T10:55:59;4.20;;;2.20;;
20865;SDS011;10593;48.398;10.698;2023-10-09T10:58:52;9.20;;;3.13;;
20865;SDS011;10593;48.398;10.698;2023-10-09T11:01:20;7.50;;;2.90;;
20865;SDS011;10593;48.398;10.698;2023-10-09T11:03:50;7.97;;;3.00;;
20865;SDS011;10593;48.398;10.698;2023-10-09T11:06:28;6.80;;;2.50;;
20865;SDS011;10593;48.398;10.698;2023-10-09T11:09:03;7.30;;;3.20;;
20865;SDS011;10593;48.398;10.698;2023-10-09T11:11:49;6.13;;;2.60;;
20865;SDS011;10593;48.398;10.698;2023-10-09T11:14:44;5.83;;;2.60;;
20865;SDS011;10593;48.398;10.698;2023-10-09T11:17:30;3.93;;;2.80;;
20865;SDS011;10593;48.398;10.698;2023-10-09T11:19:58;7.70;;;3.20;;
20865;SDS011;10593;48.398;10.698;2023-10-09T11:22:44;6.13;;;3.40;;
20865;SDS011;10593;48.398;10.698;2023-10-09T11:25:30;5.00;;;2.73;;
20865;SDS011;10593;48.398;10.698;2023-10-09T11:27:57;8.30;;;3.23;;
20865;SDS011;10593;48.398;10.698;2023-10-09T11:30:39;6.50;;;3.03;;
20865;SDS011;10593;48.398;10.698;2023-10-09T11:33:05;6.70;;;3.73;;
20865;SDS011;10593;48.398;10.698;2023-10-09T11:35:39;7.47;;;3.50;;
20865;SDS011;10593;48.398;10.698;2023-10-09T11:38:08;3.90;;;2.23;;
20865;SDS011;10593;48.398;10.698;2023-10-09T11:40:46;9.63;;;3.27;;
20865;SDS011;10593;48.398;10.698;2023-10-09T11:43:18;6.03;;;2.60;;
20865;SDS011;10593;48.398;10.698;2023-10-09T11:46:08;10.23;;;2.83;;
20865;SDS011;10593;48.398;10.698;2023-10-09T11:48:38;6.77;;;3.07;;
20865;SDS011;10593;48.398;10.698;2023-10-09T11:51:33;5.93;;;2.80;;
20865;SDS011;10593;48.398;10.698;2023-10-09T11:54:03;6.73;;;2.53;;
20865;SDS011;10593;48.398;10.698;2023-10-09T11:56:29;3.93;;;2.17;;
20865;SDS011;10593;48.398;10.698;2023-10-09T11:58:55;8.70;;;3.03;;
20865;SDS011;10593;48.398;10.698;2023-10-09T12:01:23;6.47;;;3.00;;
20865;SDS011;10593;48.398;10.698;2023-10-09T12:03:51;5.87;;;2.60;;
20865;SDS011;10593;48.398;10.698;2023-10-09T12:06:19;6.57;;;2.87;;
20865;SDS011;10593;48.398;10.698;2023-10-09T12:08:55;9.50;;;2.93;;
20865;SDS011;10593;48.398;10.698;2023-10-09T12:11:23;8.60;;;2.87;;
20865;SDS011;10593;48.398;10.698;2023-10-09T12:13:53;7.67;;;2.73;;
20865;SDS011;10593;48.398;10.698;2023-10-09T12:16:26;7.77;;;3.33;;
20865;SDS011;10593;48.398;10.698;2023-10-09T12:18:57;6.57;;;2.90;;
20865;SDS011;10593;48.398;10.698;2023-10-09T12:21:24;4.47;;;2.30;;
20865;SDS011;10593;48.398;10.698;2023-10-09T12:23:53;7.60;;;2.73;;
20865;SDS011;10593;48.398;10.698;2023-10-09T12:26:22;6.67;;;2.70;;
20865;SDS011;10593;48.398;10.698;2023-10-09T12:28:49;4.67;;;2.20;;
20865;SDS011;10593;48.398;10.698;2023-10-09T12:31:15;9.30;;;3.00;;
20865;SDS011;10593;48.398;10.698;2023-10-09T12:33:46;6.00;;;2.80;;
20865;SDS011;10593;48.398;10.698;2023-10-09T12:36:12;5.27;;;3.20;;
20865;SDS011;10593;48.398;10.698;2023-10-09T12:38:46;4.93;;;2.97;;
20865;SDS011;10593;48.398;10.698;2023-10-09T12:41:18;9.50;;;3.17;;
20865;SDS011;10593;48.398;10.698;2023-10-09T12:43:48;7.30;;;2.87;;
20865;SDS011;10593;48.398;10.698;2023-10-09T12:46:13;8.90;;;2.87;;
20865;SDS011;10593;48.398;10.698;2023-10-09T12:48:42;6.13;;;2.53;;
20865;SDS011;10593;48.398;10.698;2023-10-09T12:51:11;9.30;;;3.50;;
20865;SDS011;10593;48.398;10.698;2023-10-09T12:53:44;5.13;;;2.90;;
20865;SDS011;10593;48.398;10.698;2023-10-09T12:56:13;5.07;;;2.97;;
20865;SDS011;10593;48.398;10.698;2023-10-09T12:58:43;9.30;;;2.93;;
20865;SDS011;10593;48.398;10.698;2023-10-09T13:01:17;5.43;;;2.50;;
20865;SDS011;10593;48.398;10.698;2023-10-09T13:03:45;4.87;;;2.33;;
20865;SDS011;10593;48.398;10.698;2023-10-09T13:06:14;6.17;;;2.40;;
20865;SDS011;10593;48.398;10.698;2023-10-09T13:08:48;6.77;;;2.60;;
20865;SDS011;10593;48.398;10.698;2023-10-09T13:11:14;6.13;;;2.67;;
20865;SDS011;10593;48.398;10.698;2023-10-09T13:13:43;7.20;;;3.10;;
20865;SDS011;10593;48.398;10.698;2023-10-09T13:16:20;6.53;;;2.90;;
20865;SDS011;10593;48.398;10.698;2023-10-09T13:18:53;5.37;;;2.70;;
20865;SDS011;10593;48.398;10.698;2023-10-09T13:21:27;6.60;;;2.77;;
20865;SDS011;10593;48.398;10.698;2023-10-09T13:23:57;5.50;;;2.80;;
20865;SDS011;10593;48.398;10.698;2023-10-09T13:26:25;6.27;;;3.03;;
20865;SDS011;10593;48.398;10.698;2023-10-09T13:28:55;5.73;;;2.93;;
20865;SDS011;10593;48.398;10.698;2023-10-09T13:31:23;7.83;;;2.87;;
20865;SDS011;10593;48.398;10.698;2023-10-09T13:33:51;7.50;;;3.23;;
20865;SDS011;10593;48.398;10.698;2023-10-09T13:36:23;5.23;;;2.83;;
20865;SDS011;10593;48.398;10.698;2023-10-09T13:39:11;4.37;;;2.70;;
20865;SDS011;10593;48.398;10.698;2023-10-09T13:41:51;7.13;;;3.33;;
20865;SDS011;10593;48.398;10.698;2023-10-09T13:46:54;4.63;;;2.40;;
20865;SDS011;10593;48.398;10.698;2023-10-09T13:49:21;4.40;;;2.53;;
20865;SDS011;10593;48.398;10.698;2023-10-09T13:51:54;5.93;;;2.90;;
20865;SDS011;10593;48.398;10.698;2023-10-09T13:54:22;6.33;;;3.10;;
20865;SDS011;10593;48.398;10.698;2023-10-09T13:56:57;8.47;;;2.90;;
20865;SDS011;10593;48.398;10.698;2023-10-09T13:59:24;6.17;;;2.90;;
20865;SDS011;10593;48.398;10.698;2023-10-09T14:01:53;6.53;;;2.93;;
20865;SDS011;10593;48.398;10.698;2023-10-09T14:04:20;8.50;;;3.13;;
20865;SDS011;10593;48.398;10.698;2023-10-09T14:06:48;9.00;;;3.23;;
20865;SDS011;10593;48.398;10.698;2023-10-09T14:09:21;6.60;;;2.80;;
20865;SDS011;10593;48.398;10.698;2023-10-09T14:12:03;7.30;;;3.23;;
20865;SDS011;10593;48.398;10.698;2023-10-09T14:14:38;8.47;;;3.40;;
20865;SDS011;10593;48.398;10.698;2023-10-09T14:17:12;11.97;;;3.13;;
20865;SDS011;10593;48.398;10.698;2023-10-09T14:19:39;4.87;;;2.90;;
20865;SDS011;10593;48.398;10.698;2023-10-09T14:22:12;5.50;;;2.87;;
20865;SDS011;10593;48.398;10.698;2023-10-09T14:24:52;7.33;;;2.93;;
20865;SDS011;10593;48.398;10.698;2023-10-09T14:27:24;9.87;;;3.20;;
20865;SDS011;10593;48.398;10.698;2023-10-09T14:29:54;8.03;;;3.07;;
20865;SDS011;10593;48.398;10.698;2023-10-09T14:32:21;7.43;;;3.67;;
20865;SDS011;10593;48.398;10.698;2023-10-09T14:34:54;5.93;;;2.87;;
20865;SDS011;10593;48.398;10.698;2023-10-09T14:37:26;8.00;;;2.70;;
20865;SDS011;10593;48.398;10.698;2023-10-09T14:39:57;6.57;;;2.67;;
20865;SDS011;10593;48.398;10.698;2023-10-09T14:42:23;4.77;;;2.87;;
20865;SDS011;10593;48.398;10.698;2023-10-09T14:44:52;7.87;;;2.83;;
20865;SDS011;10593;48.398;10.698;2023-10-09T14:47:18;7.70;;;3.13;;
20865;SDS011;10593;48.398;10.698;2023-10-09T14:49:46;7.03;;;2.40;;
20865;SDS011;10593;48.398;10.698;2023-10-09T14:52:13;6.33;;;2.60;;
20865;SDS011;10593;48.398;10.698;2023-10-09T14:54:45;7.87;;;3.10;;
20865;SDS011;10593;48.398;10.698;2023-10-09T14:57:12;8.20;;;2.83;;
20865;SDS011;10593;48.398;10.698;2023-10-09T14:59:38;6.27;;;2.83;;
20865;SDS011;10593;48.398;10.698;2023-10-09T15:02:04;6.47;;;2.33;;
20865;SDS011;10593;48.398;10.698;2023-10-09T15:04:32;4.33;;;2.40;;
20865;SDS011;10593;48.398;10.698;2023-10-09T15:07:01;6.23;;;2.93;;
20865;SDS011;10593;48.398;10.698;2023-10-09T15:09:31;7.03;;;2.80;;
20865;SDS011;10593;48.398;10.698;2023-10-09T15:11:59;5.67;;;2.50;;
20865;SDS011;10593;48.398;10.698;2023-10-09T15:14:25;6.03;;;2.73;;
20865;SDS011;10593;48.398;10.698;2023-10-09T15:16:51;6.40;;;2.63;;
20865;SDS011;10593;48.398;10.698;2023-10-09T15:19:16;6.40;;;2.67;;
20865;SDS011;10593;48.398;10.698;2023-10-09T15:21:42;4.93;;;2.50;;
20865;SDS011;10593;48.398;10.698;2023-10-09T15:24:11;6.00;;;2.70;;
20865;SDS011;10593;48.398;10.698;2023-10-09T15:26:41;7.13;;;3.00;;
20865;SDS011;10593;48.398;10.698;2023-10-09T15:29:07;5.00;;;2.80;;
20865;SDS011;10593;48.398;10.698;2023-10-09T15:31:34;5.23;;;2.77;;
20865;SDS011;10593;48.398;10.698;2023-10-09T15:34:05;7.20;;;3.07;;